Weather at Soroako Airport

Public forecast

Using degrees Celsius for public forecast. Weather courtesy of forecast.io.

Closest aviation weather report (METAR) to Soroako Airport

Closest report is Sultan Aji Muhammad Sulaiman Sepinggan International Airport, 278.2 nm (515.3 km) WNW.

2024/05/25 22:30 (retrieved 46 minutes ago)

WALL 252230Z 27005KT 6000 -TSRA FEW018CB SCT019 27/27 Q1009 RMK CB TO N NE AND E

Aviation forecast (TAF) for Soroako Airport

2024/05/25 18:00 (retrieved 5 hours ago)

TAF WAWS 251700Z 2518/2606 09005KT 8000 SCT019